createdAt,value
2022-10-11T00:00:02.548Z,101325.16
2022-10-11T00:00:37.142Z,101331.47
2022-10-11T00:01:09.947Z,101326.25
2022-10-11T00:01:24.477Z,101322.69
2022-10-11T00:01:38.551Z,101323.59
2022-10-11T00:01:51.167Z,101328.06
2022-10-11T00:02:03.931Z,101327.22
2022-10-11T00:02:16.998Z,101323.69
2022-10-11T00:02:29.749Z,101328.06
2022-10-11T00:02:43.362Z,101324.53
2022-10-11T00:02:55.956Z,101326.38
2022-10-11T00:03:08.569Z,101321.84
2022-10-11T00:03:21.607Z,101328.19
2022-10-11T00:03:34.260Z,101323.69
2022-10-11T00:03:46.929Z,101328.94
2022-10-11T00:03:59.567Z,101329.78
2022-10-11T00:04:12.412Z,101327.09
2022-10-11T00:04:26.124Z,101329.78
2022-10-11T00:04:38.810Z,101323.59
2022-10-11T00:04:51.583Z,101326.38
2022-10-11T00:05:04.745Z,101323.69
2022-10-11T00:05:17.753Z,101328.06
2022-10-11T00:05:30.613Z,101320.28
2022-10-11T00:05:44.166Z,101326.38
2022-10-11T00:05:57.979Z,101326.38
2022-10-11T00:06:10.591Z,101329.06
2022-10-11T00:06:23.254Z,101329.06
2022-10-11T00:06:37.938Z,101330.00
2022-10-11T00:06:50.544Z,101332.56
2022-10-11T00:07:03.197Z,101331.84
2022-10-11T00:07:15.866Z,101333.56
2022-10-11T00:07:29.902Z,101328.31
2022-10-11T00:07:42.835Z,101333.69
2022-10-11T00:07:55.833Z,101334.63
2022-10-11T00:08:08.414Z,101334.63
2022-10-11T00:08:21.144Z,101335.50
2022-10-11T00:08:33.736Z,101332.81
2022-10-11T00:08:47.338Z,101333.69
2022-10-11T00:08:59.973Z,101337.31
2022-10-11T00:09:12.687Z,101329.28
2022-10-11T00:09:25.363Z,101332.81
2022-10-11T00:09:38.122Z,101334.63
2022-10-11T00:09:50.695Z,101332.94
2022-10-11T00:10:05.554Z,101333.78
2022-10-11T00:10:18.799Z,101331.94
2022-10-11T00:10:31.549Z,101332.94
2022-10-11T00:10:44.824Z,101333.88
2022-10-11T00:10:58.853Z,101329.50
2022-10-11T00:11:11.814Z,101333.88
2022-10-11T00:11:24.425Z,101335.63
2022-10-11T00:11:37.335Z,101334.75
2022-10-11T00:11:50.951Z,101330.34
2022-10-11T00:12:04.264Z,101328.53
2022-10-11T00:12:16.858Z,101330.34
2022-10-11T00:12:29.672Z,101337.56
2022-10-11T00:12:42.500Z,101335.84
2022-10-11T00:12:55.221Z,101340.34
2022-10-11T00:13:08.700Z,101334.13
2022-10-11T00:13:22.297Z,101332.44
2022-10-11T00:13:35.552Z,101331.56
2022-10-11T00:13:48.339Z,101340.59
2022-10-11T00:14:00.964Z,101333.50
2022-10-11T00:14:13.566Z,101339.75
2022-10-11T00:14:28.052Z,101339.75
2022-10-11T00:14:40.715Z,101338.00
2022-10-11T00:14:53.330Z,101337.16
2022-10-11T00:15:08.226Z,101343.38
2022-10-11T00:15:22.126Z,101338.88
2022-10-11T00:15:35.273Z,101340.69
2022-10-11T00:15:49.569Z,101338.88
2022-10-11T00:16:08.355Z,101338.00
2022-10-11T00:16:22.474Z,101339.00
2022-10-11T00:16:35.584Z,101348.00
2022-10-11T00:16:49.619Z,101340.94
2022-10-11T00:17:02.302Z,101342.78
2022-10-11T00:17:14.951Z,101340.19
2022-10-11T00:17:27.572Z,101341.91
2022-10-11T00:17:40.390Z,101345.56
2022-10-11T00:17:53.985Z,101340.19
2022-10-11T00:18:07.238Z,101343.00
2022-10-11T00:18:20.195Z,101342.13
2022-10-11T00:18:32.809Z,101341.28
2022-10-11T00:18:45.436Z,101343.09
2022-10-11T00:18:58.057Z,101343.09
2022-10-11T00:19:11.243Z,101346.75
2022-10-11T00:19:24.902Z,101341.41
2022-10-11T00:19:37.503Z,101344.06
2022-10-11T00:19:50.410Z,101348.59
2022-10-11T00:20:03.132Z,101344.06
2022-10-11T00:20:16.081Z,101347.72
2022-10-11T00:20:28.762Z,101350.38
2022-10-11T00:20:42.383Z,101347.84
2022-10-11T00:21:02.059Z,101347.94
2022-10-11T00:21:16.113Z,101340.03
2022-10-11T00:21:28.736Z,101340.91
2022-10-11T00:21:41.406Z,101342.69
2022-10-11T00:21:54.028Z,101341.97
2022-10-11T00:22:07.620Z,101349.91
2022-10-11T00:22:20.241Z,101344.78
2022-10-11T00:22:33.005Z,101337.59
2022-10-11T00:22:45.847Z,101339.41
2022-10-11T00:22:58.446Z,101343.06
2022-10-11T00:23:11.043Z,101346.47
2022-10-11T00:23:23.645Z,101343.06
2022-10-11T00:23:36.436Z,101342.94
2022-10-11T00:23:50.616Z,101341.22
2022-10-11T00:24:03.519Z,101343.91
2022-10-11T00:24:16.906Z,101341.34
2022-10-11T00:24:29.525Z,101344.13
2022-10-11T00:24:42.188Z,101341.56
2022-10-11T00:24:54.776Z,101339.88
2022-10-11T00:25:09.398Z,101347.06
2022-10-11T00:25:22.994Z,101343.50
2022-10-11T00:25:35.657Z,101348.84
2022-10-11T00:25:56.997Z,101345.44
2022-10-11T00:26:10.950Z,101336.44
2022-10-11T00:26:23.583Z,101342.66
2022-10-11T00:26:36.160Z,101342.66
2022-10-11T00:26:49.791Z,101342.66
2022-10-11T00:27:02.400Z,101334.63
2022-10-11T00:27:15.021Z,101340.81
2022-10-11T00:27:27.667Z,101341.81
2022-10-11T00:27:40.243Z,101350.78
2022-10-11T00:27:53.031Z,101343.75
2022-10-11T00:28:05.694Z,101340.22
2022-10-11T00:28:19.359Z,101345.56
2022-10-11T00:28:32.749Z,101342.91
2022-10-11T00:28:45.412Z,101342.06
2022-10-11T00:28:58.040Z,101340.31
2022-10-11T00:29:11.882Z,101336.81
2022-10-11T00:29:25.710Z,101340.31
2022-10-11T00:29:38.542Z,101334.97
2022-10-11T00:29:51.159Z,101341.31
2022-10-11T00:30:04.902Z,101339.47
2022-10-11T00:30:17.667Z,101340.44
2022-10-11T00:30:30.323Z,101336.06
2022-10-11T00:30:43.806Z,101336.91
2022-10-11T00:30:56.499Z,101336.06
2022-10-11T00:31:11.828Z,101333.47
2022-10-11T00:31:24.590Z,101333.47
2022-10-11T00:31:37.162Z,101337.88
2022-10-11T00:31:51.196Z,101336.16
2022-10-11T00:32:04.113Z,101340.66
2022-10-11T00:32:17.842Z,101330.91
2022-10-11T00:32:30.513Z,101337.34
2022-10-11T00:32:43.140Z,101332.00
2022-10-11T00:32:55.962Z,101330.31
2022-10-11T00:33:08.552Z,101335.75
2022-10-11T00:33:21.274Z,101336.59
2022-10-11T00:33:34.010Z,101339.28
2022-10-11T00:33:47.664Z,101337.59
2022-10-11T00:34:00.290Z,101334.06
2022-10-11T00:34:13.372Z,101334.91
2022-10-11T00:34:25.996Z,101331.50
2022-10-11T00:34:38.595Z,101335.88
2022-10-11T00:34:51.212Z,101335.88
2022-10-11T00:35:04.803Z,101337.69
2022-10-11T00:35:18.645Z,101341.22
2022-10-11T00:35:31.340Z,101333.19
2022-10-11T00:35:44.113Z,101341.22
2022-10-11T00:35:59.050Z,101335.88
2022-10-11T00:36:14.402Z,101343.16
2022-10-11T00:36:27.493Z,101337.81
2022-10-11T00:36:40.088Z,101344.13
2022-10-11T00:36:53.707Z,101340.63
2022-10-11T00:37:06.329Z,101338.88
2022-10-11T00:37:19.172Z,101336.34
2022-10-11T00:37:31.810Z,101335.47
2022-10-11T00:37:44.488Z,101336.44
2022-10-11T00:37:57.465Z,101329.50
2022-10-11T00:38:10.061Z,101337.41
2022-10-11T00:38:22.686Z,101338.38
2022-10-11T00:38:36.515Z,101333.97
2022-10-11T00:38:49.428Z,101337.53
2022-10-11T00:39:02.026Z,101337.53
2022-10-11T00:39:14.718Z,101337.53
2022-10-11T00:39:27.302Z,101336.66
2022-10-11T00:39:39.935Z,101332.28
2022-10-11T00:39:52.578Z,101338.50
2022-10-11T00:40:08.382Z,101340.31
2022-10-11T00:40:21.310Z,101335.94
2022-10-11T00:40:34.001Z,101344.81
2022-10-11T00:40:46.587Z,101343.09
2022-10-11T00:40:59.648Z,101340.41
2022-10-11T00:41:13.039Z,101340.41
2022-10-11T00:41:25.733Z,101345.78
2022-10-11T00:41:39.352Z,101342.25
2022-10-11T00:41:52.038Z,101347.72
2022-10-11T00:42:04.785Z,101347.72
2022-10-11T00:42:17.819Z,101348.69
2022-10-11T00:42:30.410Z,101346.00
2022-10-11T00:42:43.310Z,101343.44
2022-10-11T00:42:55.919Z,101345.28
2022-10-11T00:43:17.835Z,101346.97
2022-10-11T00:43:32.367Z,101347.94
2022-10-11T00:43:45.364Z,101347.94
2022-10-11T00:44:15.600Z,101344.53
2022-10-11T00:44:31.141Z,101349.88
2022-10-11T00:44:46.805Z,101353.53
2022-10-11T00:45:32.447Z,101350.97
2022-10-11T00:46:04.432Z,101346.69
2022-10-11T00:46:31.983Z,101341.34
2022-10-11T00:46:53.629Z,101346.78
2022-10-11T00:47:15.514Z,101344.13
2022-10-11T00:47:28.102Z,101339.72
2022-10-11T00:47:42.553Z,101343.28
2022-10-11T00:47:56.768Z,101341.53
2022-10-11T00:48:15.770Z,101341.53
2022-10-11T00:48:36.484Z,101345.19
2022-10-11T00:48:53.897Z,101347.88
2022-10-11T00:49:14.227Z,101349.72
2022-10-11T00:49:35.223Z,101356.84
2022-10-11T00:49:52.999Z,101347.97
2022-10-11T00:50:10.901Z,101347.13
2022-10-11T00:50:24.581Z,101341.03
2022-10-11T00:50:37.669Z,101352.50
2022-10-11T00:50:50.530Z,101349.81
2022-10-11T00:51:08.067Z,101352.50
2022-10-11T00:51:27.064Z,101350.66
2022-10-11T00:51:45.561Z,101345.41
2022-10-11T00:52:02.022Z,101355.16
2022-10-11T00:52:19.767Z,101357.00
2022-10-11T00:52:37.862Z,101352.59
2022-10-11T00:52:56.400Z,101356.13
2022-10-11T00:53:12.089Z,101356.13
2022-10-11T00:53:26.185Z,101351.75
2022-10-11T00:53:39.199Z,101352.69
2022-10-11T00:53:52.966Z,101348.22
2022-10-11T00:54:08.329Z,101351.84
2022-10-11T00:54:25.597Z,101351.84
2022-10-11T00:54:41.668Z,101355.25
2022-10-11T00:54:54.400Z,101346.50
2022-10-11T00:55:10.640Z,101351.00
2022-10-11T00:55:28.321Z,101350.16
2022-10-11T00:55:48.060Z,101349.28
2022-10-11T00:56:04.859Z,101345.88
2022-10-11T00:56:23.750Z,101345.88
2022-10-11T00:56:39.507Z,101351.22
2022-10-11T00:56:56.952Z,101344.16
2022-10-11T00:57:15.518Z,101341.72
2022-10-11T00:57:31.654Z,101352.41
2022-10-11T00:57:48.512Z,101346.06
2022-10-11T00:58:01.529Z,101348.84
2022-10-11T00:58:14.890Z,101351.53
2022-10-11T00:58:27.706Z,101354.22
2022-10-11T00:58:41.448Z,101352.50
2022-10-11T00:58:56.293Z,101349.00
2022-10-11T00:59:14.002Z,101355.25
2022-10-11T00:59:29.673Z,101350.78
2022-10-11T00:59:45.435Z,101355.38
2022-10-11T00:59:58.803Z,101350.88
2022-10-11T01:00:13.990Z,101351.84
2022-10-11T01:00:26.665Z,101357.19
2022-10-11T01:00:40.362Z,101355.50
2022-10-11T01:00:54.219Z,101349.28
2022-10-11T01:01:07.815Z,101351.97
2022-10-11T01:01:20.574Z,101348.41
2022-10-11T01:01:33.375Z,101347.56
2022-10-11T01:01:46.101Z,101353.91
2022-10-11T01:01:58.794Z,101339.63
2022-10-11T01:02:15.516Z,101346.81
2022-10-11T01:02:30.306Z,101353.03
2022-10-11T01:02:43.640Z,101343.28
2022-10-11T01:02:57.017Z,101349.59
2022-10-11T01:03:09.650Z,101345.22
2022-10-11T01:03:25.704Z,101345.22
2022-10-11T01:03:40.389Z,101352.41
2022-10-11T01:03:54.311Z,101348.88
2022-10-11T01:04:06.976Z,101343.53
2022-10-11T01:04:19.596Z,101345.22
2022-10-11T01:04:32.964Z,101346.31
2022-10-11T01:04:45.753Z,101348.88
2022-10-11T01:05:25.109Z,101347.16
2022-10-11T01:05:33.080Z,101344.47
2022-10-11T01:05:46.266Z,101351.56
2022-10-11T01:05:58.968Z,101341.78
2022-10-11T01:06:11.775Z,101339.22
2022-10-11T01:06:24.584Z,101347.16
2022-10-11T01:06:37.332Z,101344.47
2022-10-11T01:06:52.309Z,101338.28
2022-10-11T01:07:04.947Z,101341.78
2022-10-11T01:07:19.250Z,101337.44
2022-10-11T01:07:33.458Z,101339.22
2022-10-11T01:07:47.865Z,101343.72
2022-10-11T01:08:00.887Z,101340.22
2022-10-11T01:08:13.876Z,101334.00
2022-10-11T01:08:28.919Z,101334.00
2022-10-11T01:08:41.912Z,101338.38
2022-10-11T01:08:54.863Z,101336.69
2022-10-11T01:09:07.934Z,101339.47
2022-10-11T01:09:22.475Z,101338.59
2022-10-11T01:09:35.358Z,101337.72
2022-10-11T01:09:48.029Z,101335.94
2022-10-11T01:10:01.031Z,101336.88
2022-10-11T01:10:15.290Z,101336.03
2022-10-11T01:10:28.378Z,101336.88
2022-10-11T01:10:41.045Z,101334.22
2022-10-11T01:10:53.844Z,101332.50
2022-10-11T01:11:07.196Z,101340.53
2022-10-11T01:11:23.363Z,101328.09
2022-10-11T01:11:38.269Z,101338.81
2022-10-11T01:11:54.876Z,101333.47
2022-10-11T01:12:15.062Z,101333.47
2022-10-11T01:12:31.017Z,101331.75
2022-10-11T01:12:54.782Z,101330.03
2022-10-11T01:13:16.831Z,101339.88
2022-10-11T01:13:42.573Z,101335.50
2022-10-11T01:14:20.084Z,101338.28
2022-10-11T01:14:54.425Z,101333.88
2022-10-11T01:15:17.157Z,101334.78
2022-10-11T01:15:33.822Z,101339.25
2022-10-11T01:15:55.600Z,101339.25
2022-10-11T01:16:14.394Z,101337.53
2022-10-11T01:16:35.130Z,101342.91
2022-10-11T01:16:55.326Z,101339.38
2022-10-11T01:17:19.872Z,101336.69
2022-10-11T01:17:40.377Z,101332.44
2022-10-11T01:18:00.672Z,101339.47
2022-10-11T01:18:19.815Z,101340.44
2022-10-11T01:18:41.054Z,101340.53
2022-10-11T01:19:05.898Z,101334.13
2022-10-11T01:19:38.625Z,101336.91
2022-10-11T01:20:30.647Z,101340.53
2022-10-11T01:20:59.655Z,101340.66
2022-10-11T01:21:22.019Z,101328.25
2022-10-11T01:21:42.663Z,101339.06
2022-10-11T01:22:08.503Z,101339.91
2022-10-11T01:22:45.548Z,101335.63
2022-10-11T01:23:37.748Z,101342.72
2022-10-11T01:24:08.789Z,101339.28
2022-10-11T01:25:02.594Z,101342.06
2022-10-11T01:25:27.448Z,101344.81
2022-10-11T01:25:58.695Z,101347.41
2022-10-11T01:26:37.148Z,101346.66
2022-10-11T01:27:18.190Z,101341.53
2022-10-11T01:27:55.556Z,101347.81
2022-10-11T01:28:23.099Z,101348.81
2022-10-11T01:28:47.953Z,101346.13
2022-10-11T01:29:11.719Z,101353.41
2022-10-11T01:29:41.569Z,101351.56
2022-10-11T01:30:05.103Z,101351.56
2022-10-11T01:30:26.004Z,101344.50
2022-10-11T01:30:39.248Z,101358.75
2022-10-11T01:30:53.301Z,101353.50
2022-10-11T01:31:14.018Z,101352.53
2022-10-11T01:31:32.214Z,101353.41
2022-10-11T01:31:53.446Z,101340.97
2022-10-11T01:32:15.247Z,101347.31
2022-10-11T01:32:33.723Z,101348.25
2022-10-11T01:32:50.934Z,101352.75
2022-10-11T01:33:15.505Z,101346.56
2022-10-11T01:33:36.915Z,101342.16
2022-10-11T01:33:54.869Z,101355.53
2022-10-11T01:34:14.532Z,101352.97
2022-10-11T01:34:32.630Z,101349.31
2022-10-11T01:34:52.610Z,101353.81
2022-10-11T01:35:13.128Z,101352.97
2022-10-11T01:35:31.222Z,101359.16
2022-10-11T01:35:49.259Z,101364.53
2022-10-11T01:36:09.366Z,101358.19
2022-10-11T01:36:28.840Z,101356.50
2022-10-11T01:36:50.296Z,101354.75
2022-10-11T01:37:09.465Z,101360.13
2022-10-11T01:37:29.538Z,101355.75
2022-10-11T01:37:46.485Z,101354.91
2022-10-11T01:38:03.258Z,101350.50
2022-10-11T01:38:22.491Z,101358.50
2022-10-11T01:38:42.194Z,101361.41
2022-10-11T01:38:59.589Z,101359.59
2022-10-11T01:39:16.644Z,101361.28
2022-10-11T01:39:34.134Z,101358.84
2022-10-11T01:39:52.174Z,101363.97
2022-10-11T01:40:10.912Z,101364.84
2022-10-11T01:40:27.054Z,101363.13
2022-10-11T01:40:44.438Z,101362.16
2022-10-11T01:41:00.195Z,101363.88
2022-10-11T01:41:16.751Z,101354.16
2022-10-11T01:41:35.692Z,101357.66
2022-10-11T01:41:52.658Z,101356.81
2022-10-11T01:42:09.870Z,101360.44
2022-10-11T01:42:23.991Z,101355.09
2022-10-11T01:42:38.942Z,101352.53
2022-10-11T01:42:54.876Z,101359.69
2022-10-11T01:43:09.443Z,101363.25
2022-10-11T01:43:24.683Z,101350.81
2022-10-11T01:43:39.705Z,101353.59
2022-10-11T01:43:57.148Z,101359.81
2022-10-11T01:44:12.619Z,101349.97
2022-10-11T01:44:26.756Z,101361.41
2022-10-11T01:44:45.008Z,101363.25
2022-10-11T01:44:59.376Z,101364.94
2022-10-11T01:45:16.232Z,101361.28
2022-10-11T01:45:31.306Z,101363.97
2022-10-11T01:45:48.768Z,101372.84
2022-10-11T01:46:03.372Z,101372.84
2022-10-11T01:46:19.197Z,101368.38
2022-10-11T01:46:33.257Z,101374.56
2022-10-11T01:46:45.860Z,101376.38
2022-10-11T01:46:58.434Z,101371.03
2022-10-11T01:47:11.043Z,101374.56
2022-10-11T01:47:26.096Z,101371.03
2022-10-11T01:47:39.162Z,101381.72
2022-10-11T01:48:02.383Z,101373.72
2022-10-11T01:48:14.998Z,101375.53
2022-10-11T01:48:27.711Z,101369.31
2022-10-11T01:48:48.218Z,101374.66
2022-10-11T01:49:02.572Z,101371.97
2022-10-11T01:49:16.204Z,101371.88
2022-10-11T01:49:28.822Z,101370.06
2022-10-11T01:49:42.009Z,101371.88
2022-10-11T01:49:56.664Z,101379.06
2022-10-11T01:50:35.205Z,101379.81
2022-10-11T01:50:51.232Z,101379.81
2022-10-11T01:51:04.130Z,101376.28
2022-10-11T01:51:19.705Z,101378.06
2022-10-11T01:51:37.305Z,101381.63
2022-10-11T01:51:52.843Z,101380.66
2022-10-11T01:52:07.236Z,101374.47
2022-10-11T01:52:21.489Z,101376.28
2022-10-11T01:52:39.668Z,101376.16
2022-10-11T01:52:52.536Z,101371.78
2022-10-11T01:53:20.232Z,101375.31
2022-10-11T01:54:00.188Z,101381.63
2022-10-11T01:54:27.720Z,101378.06
2022-10-11T01:55:09.156Z,101373.06
2022-10-11T01:55:28.725Z,101379.28
2022-10-11T01:55:49.938Z,101375.63
2022-10-11T01:56:16.788Z,101377.47
2022-10-11T01:56:42.602Z,101371.25
2022-10-11T01:57:30.362Z,101368.59
2022-10-11T01:57:55.191Z,101372.97
2022-10-11T01:58:19.495Z,101371.25
2022-10-11T01:58:45.630Z,101373.94
2022-10-11T01:59:12.479Z,101375.63
2022-10-11T01:59:41.234Z,101376.59
2022-10-11T02:00:03.441Z,101376.47
2022-10-11T02:00:19.437Z,101370.28
2022-10-11T02:00:42.160Z,101370.28
2022-10-11T02:01:01.861Z,101379.91
2022-10-11T02:01:24.131Z,101380.75
2022-10-11T02:01:49.266Z,101381.63
2022-10-11T02:02:15.301Z,101384.19
2022-10-11T02:02:40.964Z,101380.56
2022-10-11T02:03:08.767Z,101383.13
2022-10-11T02:03:32.070Z,101383.00
2022-10-11T02:03:50.547Z,101384.75
2022-10-11T02:04:09.666Z,101382.91
2022-10-11T02:04:31.016Z,101373.06
2022-10-11T02:04:47.583Z,101379.16
2022-10-11T02:05:08.868Z,101381.75
2022-10-11T02:05:29.666Z,101379.81
2022-10-11T02:05:48.556Z,101385.91
2022-10-11T02:06:09.743Z,101387.50
2022-10-11T02:06:33.163Z,101381.19
2022-10-11T02:06:53.450Z,101389.13
2022-10-11T02:07:12.477Z,101387.19
2022-10-11T02:07:33.629Z,101386.13
2022-10-11T02:07:54.213Z,101384.19
2022-10-11T02:08:16.097Z,101382.16
2022-10-11T02:08:38.676Z,101384.50
2022-10-11T02:08:57.810Z,101388.78
2022-10-11T02:09:18.732Z,101386.00
2022-10-11T02:09:36.470Z,101390.28
2022-10-11T02:09:58.519Z,101391.13
2022-10-11T02:10:17.030Z,101381.19
2022-10-11T02:10:35.097Z,101385.47
2022-10-11T02:10:54.107Z,101392.53
2022-10-11T02:11:13.798Z,101389.72
2022-10-11T02:11:29.982Z,101385.13
2022-10-11T02:11:43.146Z,101382.34
2022-10-11T02:12:01.236Z,101382.25
2022-10-11T02:12:24.636Z,101386.53
2022-10-11T02:12:43.250Z,101382.03
2022-10-11T02:13:02.491Z,101384.53
2022-10-11T02:13:22.310Z,101381.63
2022-10-11T02:13:39.904Z,101376.25
2022-10-11T02:13:58.746Z,101377.75
2022-10-11T02:14:15.621Z,101376.78
2022-10-11T02:14:34.603Z,101374.84
2022-10-11T02:14:51.804Z,101377.44
2022-10-11T02:15:09.361Z,101376.47
2022-10-11T02:15:23.952Z,101373.66
2022-10-11T02:15:41.270Z,101371.72
2022-10-11T02:15:56.236Z,101373.56
2022-10-11T02:16:12.917Z,101371.63
2022-10-11T02:16:37.148Z,101376.00
2022-10-11T02:16:55.892Z,101377.63
2022-10-11T02:17:12.249Z,101385.53
2022-10-11T02:17:31.044Z,101381.03
2022-10-11T02:17:47.334Z,101390.78
2022-10-11T02:18:03.686Z,101389.69
2022-10-11T02:18:21.886Z,101387.78
2022-10-11T02:18:38.163Z,101382.41
2022-10-11T02:18:54.645Z,101389.50
2022-10-11T02:19:09.218Z,101385.84
2022-10-11T02:19:26.480Z,101384.84
2022-10-11T02:19:42.843Z,101381.13
2022-10-11T02:20:00.138Z,101387.31
2022-10-11T02:20:18.493Z,101389.91
2022-10-11T02:20:34.558Z,101384.53
2022-10-11T02:20:48.943Z,101388.91
2022-10-11T02:21:05.980Z,101384.31
2022-10-11T02:21:20.898Z,101380.66
2022-10-11T02:21:37.294Z,101379.69
2022-10-11T02:21:54.686Z,101390.31
2022-10-11T02:22:13.612Z,101383.03
2022-10-11T02:22:30.668Z,101387.28
2022-10-11T02:22:46.732Z,101388.97
2022-10-11T02:23:06.086Z,101382.69
2022-10-11T02:23:23.744Z,101381.69
2022-10-11T02:23:41.360Z,101385.84
2022-10-11T02:23:58.596Z,101386.72
2022-10-11T02:24:16.863Z,101386.59
2022-10-11T02:24:33.774Z,101389.19
2022-10-11T02:24:51.332Z,101382.00
2022-10-11T02:25:09.191Z,101387.09
2022-10-11T02:25:26.576Z,101392.25
2022-10-11T02:25:39.286Z,101390.44
2022-10-11T02:25:52.708Z,101384.09
2022-10-11T02:26:07.145Z,101385.81
2022-10-11T02:26:23.097Z,101387.41
2022-10-11T02:26:40.216Z,101378.63
2022-10-11T02:26:55.836Z,101387.28
2022-10-11T02:27:10.694Z,101387.19
2022-10-11T02:27:26.770Z,101382.69
2022-10-11T02:27:42.640Z,101390.56
2022-10-11T02:27:59.582Z,101379.00
2022-10-11T02:28:16.523Z,101386.94
2022-10-11T02:28:33.957Z,101393.06
2022-10-11T02:28:48.239Z,101383.19
2022-10-11T02:29:05.180Z,101385.75
2022-10-11T02:29:18.457Z,101393.78
2022-10-11T02:29:34.502Z,101390.13
2022-10-11T02:29:51.714Z,101388.31
2022-10-11T02:30:07.487Z,101385.50
2022-10-11T02:30:20.281Z,101394.41
2022-10-11T02:30:34.988Z,101386.25
2022-10-11T02:30:50.487Z,101380.88
2022-10-11T02:31:06.890Z,101392.47
2022-10-11T02:31:22.558Z,101387.00
2022-10-11T02:31:36.588Z,101393.19
2022-10-11T02:31:51.570Z,101389.56
2022-10-11T02:32:05.858Z,101394.09
2022-10-11T02:32:20.346Z,101398.47
2022-10-11T02:32:33.766Z,101393.09
2022-10-11T02:32:48.919Z,101388.59
2022-10-11T02:33:06.549Z,101389.47
2022-10-11T02:33:26.193Z,101392.16
2022-10-11T02:33:43.811Z,101396.53
2022-10-11T02:34:00.464Z,101380.44
2022-10-11T02:34:16.790Z,101390.16
2022-10-11T02:34:33.654Z,101385.56
2022-10-11T02:34:52.701Z,101390.06
2022-10-11T02:35:06.783Z,101388.22
2022-10-11T02:35:20.222Z,101392.63
2022-10-11T02:35:40.930Z,101390.91
2022-10-11T02:35:59.100Z,101386.44
2022-10-11T02:36:16.050Z,101386.44
2022-10-11T02:36:41.320Z,101397.16
2022-10-11T02:37:02.842Z,101391.78
2022-10-11T02:37:21.260Z,101385.56
2022-10-11T02:37:42.168Z,101389.97
2022-10-11T02:38:02.642Z,101391.78
2022-10-11T02:38:22.016Z,101390.81
2022-10-11T02:38:40.337Z,101388.03
2022-10-11T02:38:59.348Z,101393.47
2022-10-11T02:39:17.416Z,101394.34
2022-10-11T02:39:37.104Z,101399.47
2022-10-11T02:39:57.963Z,101395.22
2022-10-11T02:40:16.074Z,101398.75
2022-10-11T02:40:32.446Z,101392.41
2022-10-11T02:40:48.043Z,101397.75
2022-10-11T02:41:11.010Z,101394.13
2022-10-11T02:41:27.844Z,101408.47
2022-10-11T02:41:43.232Z,101399.47
2022-10-11T02:42:00.046Z,101401.19
2022-10-11T02:42:17.543Z,101398.50
2022-10-11T02:42:36.481Z,101399.34
2022-10-11T02:42:54.776Z,101403.75
2022-10-11T02:43:13.453Z,101404.59
2022-10-11T02:43:33.345Z,101405.44
2022-10-11T02:43:50.714Z,101397.41
2022-10-11T02:44:08.281Z,101401.81
2022-10-11T02:44:29.946Z,101399.97
2022-10-11T02:44:46.954Z,101399.97
2022-10-11T02:45:05.086Z,101407.16
2022-10-11T02:45:22.101Z,101410.59
2022-10-11T02:45:39.242Z,101404.50
2022-10-11T02:45:56.686Z,101405.22
2022-10-11T02:46:10.452Z,101399.88
2022-10-11T02:46:25.391Z,101402.56
2022-10-11T02:46:39.746Z,101400.72
2022-10-11T02:46:52.675Z,101401.56
2022-10-11T02:47:06.020Z,101402.44
2022-10-11T02:47:19.048Z,101407.81
2022-10-11T02:47:32.728Z,101405.13
2022-10-11T02:47:47.089Z,101402.44
2022-10-11T02:48:01.750Z,101396.09
2022-10-11T02:48:15.800Z,101406.81
2022-10-11T02:48:29.457Z,101406.81
2022-10-11T02:48:42.652Z,101404.13
2022-10-11T02:48:55.344Z,101404.13
2022-10-11T02:49:08.903Z,101405.00
2022-10-11T02:49:22.950Z,101404.13
2022-10-11T02:49:36.256Z,101404.88
2022-10-11T02:49:48.874Z,101408.50
2022-10-11T02:50:02.134Z,101408.66
2022-10-11T02:50:16.122Z,101405.84
2022-10-11T02:50:29.094Z,101407.56
2022-10-11T02:50:42.877Z,101406.72
2022-10-11T02:50:57.648Z,101411.19
2022-10-11T02:51:13.613Z,101398.66
2022-10-11T02:51:27.162Z,101411.19
2022-10-11T02:51:39.830Z,101404.88
2022-10-11T02:51:54.872Z,101415.59
2022-10-11T02:52:07.658Z,101405.84
2022-10-11T02:52:21.410Z,101418.28
2022-10-11T02:52:34.010Z,101414.75
2022-10-11T02:52:46.618Z,101412.94
2022-10-11T02:52:59.279Z,101414.75
2022-10-11T02:53:12.236Z,101412.94
2022-10-11T02:53:26.640Z,101417.44
2022-10-11T02:53:39.293Z,101413.78
2022-10-11T02:53:52.947Z,101422.66
2022-10-11T02:54:06.134Z,101419.13
2022-10-11T02:54:18.752Z,101415.59
2022-10-11T02:54:31.547Z,101413.78
2022-10-11T02:54:44.166Z,101417.31
2022-10-11T02:54:56.802Z,101414.63
2022-10-11T02:55:10.787Z,101408.41
2022-10-11T02:55:24.427Z,101415.50
2022-10-11T02:55:37.393Z,101415.50
2022-10-11T02:55:52.022Z,101416.34
2022-10-11T02:56:05.229Z,101413.66
2022-10-11T02:56:18.058Z,101416.34
2022-10-11T02:56:30.659Z,101416.34
2022-10-11T02:56:44.314Z,101407.56
2022-10-11T02:56:57.022Z,101415.50
2022-10-11T02:57:09.639Z,101416.34
2022-10-11T02:57:22.298Z,101418.19
2022-10-11T02:57:34.908Z,101418.19
2022-10-11T02:57:47.583Z,101419.88
2022-10-11T02:58:00.524Z,101410.97
2022-10-11T02:58:14.391Z,101423.41
2022-10-11T02:58:27.028Z,101416.34
2022-10-11T02:58:39.739Z,101417.31
2022-10-11T02:58:52.371Z,101424.38
2022-10-11T02:59:04.924Z,101416.34
2022-10-11T02:59:17.568Z,101421.72
2022-10-11T02:59:30.170Z,101415.50
2022-10-11T02:59:42.756Z,101418.19
2022-10-11T02:59:56.467Z,101421.72
2022-10-11T03:00:10.213Z,101415.50
2022-10-11T03:00:22.856Z,101416.44
2022-10-11T03:00:35.509Z,101417.31
2022-10-11T03:00:48.205Z,101412.81
2022-10-11T03:01:02.252Z,101414.63
2022-10-11T03:01:16.491Z,101419.97
2022-10-11T03:01:29.187Z,101414.50
2022-10-11T03:01:42.141Z,101420.84
2022-10-11T03:01:54.878Z,101419.88
2022-10-11T03:02:07.678Z,101416.34
2022-10-11T03:02:20.350Z,101413.78
2022-10-11T03:02:33.057Z,101410.97
2022-10-11T03:02:45.708Z,101418.91
2022-10-11T03:02:59.298Z,101415.34
2022-10-11T03:03:12.253Z,101421.72
2022-10-11T03:03:25.046Z,101418.91
2022-10-11T03:03:37.616Z,101418.91
2022-10-11T03:03:50.731Z,101418.91
2022-10-11T03:04:03.372Z,101417.19
2022-10-11T03:04:16.038Z,101419.75
2022-10-11T03:04:29.642Z,101420.72
2022-10-11T03:04:42.274Z,101420.63
2022-10-11T03:04:54.850Z,101419.75
2022-10-11T03:05:08.166Z,101424.28
2022-10-11T03:05:21.118Z,101420.63
2022-10-11T03:05:40.375Z,101421.59
2022-10-11T03:05:58.415Z,101425.97
2022-10-11T03:06:11.063Z,101422.34
2022-10-11T03:06:25.163Z,101422.34
2022-10-11T03:06:37.834Z,101421.47
2022-10-11T03:06:50.445Z,101424.88
2022-10-11T03:07:03.071Z,101425.03
2022-10-11T03:07:15.684Z,101423.19